createdAt,value
2022-08-20T00:00:55.137Z,24.10
2022-08-20T00:03:06.935Z,24.10
2022-08-20T00:05:08.927Z,24.10
2022-08-20T00:07:10.832Z,24.10
2022-08-20T00:09:12.544Z,24.00
2022-08-20T00:11:16.767Z,24.00
2022-08-20T00:13:22.163Z,24.00
2022-08-20T00:15:25.804Z,24.00
2022-08-20T00:17:31.946Z,24.00
2022-08-20T00:19:33.691Z,23.90
2022-08-20T00:21:36.483Z,23.90
2022-08-20T00:23:39.150Z,23.90
2022-08-20T00:25:41.688Z,23.90
2022-08-20T00:27:43.354Z,23.90
2022-08-20T00:29:45.073Z,23.80
2022-08-20T00:31:46.784Z,23.80
2022-08-20T00:33:48.535Z,23.80
2022-08-20T00:35:53.011Z,23.80
2022-08-20T00:37:59.964Z,23.80
2022-08-20T00:40:02.441Z,23.80
2022-08-20T00:42:08.222Z,23.80
2022-08-20T00:44:11.750Z,23.80
2022-08-20T00:46:31.981Z,23.70
2022-08-20T00:48:35.173Z,23.70
2022-08-20T00:50:37.659Z,23.70
2022-08-20T00:52:41.978Z,23.70
2022-08-20T00:54:56.475Z,23.70
2022-08-20T00:57:07.874Z,23.70
2022-08-20T00:59:12.274Z,23.70
2022-08-20T01:01:15.724Z,23.60
2022-08-20T01:03:20.293Z,23.60
2022-08-20T01:05:23.553Z,23.60
2022-08-20T01:07:37.314Z,23.60
2022-08-20T01:09:58.424Z,23.60
2022-08-20T01:12:01.315Z,23.60
2022-08-20T01:14:23.535Z,23.60
2022-08-20T01:16:29.041Z,23.60
2022-08-20T01:18:31.145Z,23.50
2022-08-20T01:20:59.317Z,23.60
2022-08-20T01:23:32.578Z,23.50
2022-08-20T01:25:40.145Z,23.50
2022-08-20T01:27:42.635Z,23.50
2022-08-20T01:29:44.907Z,23.50
2022-08-20T01:31:46.585Z,23.50
2022-08-20T01:33:48.951Z,23.50
2022-08-20T01:35:51.379Z,23.50
2022-08-20T01:37:53.042Z,23.50
2022-08-20T01:39:54.756Z,23.40
2022-08-20T01:42:12.987Z,23.40
2022-08-20T01:44:18.374Z,23.40
2022-08-20T01:46:20.337Z,23.40
2022-08-20T01:48:22.505Z,23.40
2022-08-20T01:50:25.929Z,23.40
2022-08-20T01:52:30.339Z,23.40
2022-08-20T01:54:32.364Z,23.40
2022-08-20T01:56:34.760Z,23.40
2022-08-20T01:58:38.591Z,23.40
2022-08-20T02:00:40.429Z,23.40
2022-08-20T02:02:42.144Z,23.40
2022-08-20T02:04:44.360Z,23.40
2022-08-20T02:06:56.616Z,23.40
2022-08-20T02:09:00.803Z,23.40
2022-08-20T02:11:02.607Z,23.40
2022-08-20T02:13:05.435Z,23.40
2022-08-20T02:15:08.536Z,23.40
2022-08-20T02:17:11.225Z,23.40
2022-08-20T02:19:15.103Z,23.40
2022-08-20T02:21:17.044Z,23.40
2022-08-20T02:23:18.746Z,23.40
2022-08-20T02:25:23.071Z,23.40
2022-08-20T02:27:24.959Z,23.40
2022-08-20T02:29:26.697Z,23.40
2022-08-20T02:31:31.837Z,23.40
2022-08-20T02:33:36.565Z,23.40
2022-08-20T02:35:42.711Z,23.40
2022-08-20T02:37:44.995Z,23.40
2022-08-20T02:39:46.801Z,23.40
2022-08-20T02:41:50.556Z,23.40
2022-08-20T02:43:52.239Z,23.40
2022-08-20T02:45:53.912Z,23.40
2022-08-20T02:47:57.194Z,23.40
2022-08-20T02:49:59.596Z,23.40
2022-08-20T02:52:01.499Z,23.40
2022-08-20T02:54:03.266Z,23.40
2022-08-20T02:56:08.911Z,23.40
2022-08-20T02:58:11.508Z,23.40
2022-08-20T03:00:18.445Z,23.40
2022-08-20T03:02:20.097Z,23.40
2022-08-20T03:04:21.843Z,23.40
2022-08-20T03:06:28.017Z,23.40
2022-08-20T03:08:29.721Z,23.50
2022-08-20T03:10:33.577Z,23.40
2022-08-20T03:12:35.869Z,23.50
2022-08-20T03:14:37.677Z,23.50
2022-08-20T03:16:39.353Z,23.40
2022-08-20T03:18:42.686Z,23.50
2022-08-20T03:20:45.883Z,23.50
2022-08-20T03:22:49.176Z,23.50
2022-08-20T03:24:50.879Z,23.50
2022-08-20T03:26:55.733Z,23.50
2022-08-20T03:28:57.568Z,23.50
2022-08-20T03:30:59.436Z,23.50
2022-08-20T03:33:01.240Z,23.50
2022-08-20T03:35:04.085Z,23.50
2022-08-20T03:37:05.813Z,23.50
2022-08-20T03:39:11.107Z,23.50
2022-08-20T03:41:12.973Z,23.50
2022-08-20T03:43:14.729Z,23.50
2022-08-20T03:45:20.317Z,23.60
2022-08-20T03:47:22.322Z,23.60
2022-08-20T03:49:24.231Z,23.50
2022-08-20T03:51:26.043Z,23.60
2022-08-20T03:53:31.700Z,23.60
2022-08-20T03:55:33.778Z,23.60
2022-08-20T03:57:35.811Z,23.60
2022-08-20T03:59:37.526Z,23.60
2022-08-20T04:01:46.312Z,23.60
2022-08-20T04:03:51.029Z,23.60
2022-08-20T04:05:56.373Z,23.60
2022-08-20T04:08:02.861Z,23.60
2022-08-20T04:10:06.949Z,23.60
2022-08-20T04:12:09.181Z,23.60
2022-08-20T04:14:11.607Z,23.60
2022-08-20T04:16:19.310Z,23.60
2022-08-20T04:18:22.903Z,23.60
2022-08-20T04:20:25.939Z,23.60
2022-08-20T04:22:27.614Z,23.60
2022-08-20T04:24:32.167Z,23.60
2022-08-20T04:26:36.282Z,23.60
2022-08-20T04:28:37.946Z,23.60
2022-08-20T04:30:40.005Z,23.60
2022-08-20T04:32:45.288Z,23.60
2022-08-20T04:34:47.456Z,23.60
2022-08-20T04:36:49.138Z,23.60
2022-08-20T04:38:51.106Z,23.60
2022-08-20T04:40:58.860Z,23.60
2022-08-20T04:43:00.761Z,23.60
2022-08-20T04:45:02.815Z,23.60
2022-08-20T04:47:04.562Z,23.60
2022-08-20T04:49:06.739Z,23.60
2022-08-20T04:51:08.856Z,23.60
2022-08-20T04:53:12.181Z,23.60
2022-08-20T04:55:13.900Z,23.60
2022-08-20T04:57:15.898Z,23.60
2022-08-20T04:59:17.563Z,23.60
2022-08-20T05:01:19.473Z,23.60
2022-08-20T05:03:21.319Z,23.60
2022-08-20T05:05:23.010Z,23.60
2022-08-20T05:07:25.247Z,23.60
2022-08-20T05:09:26.988Z,23.60
2022-08-20T05:11:35.226Z,23.60
2022-08-20T05:13:38.709Z,23.60
2022-08-20T05:15:40.489Z,23.60
2022-08-20T05:17:42.816Z,23.70
2022-08-20T05:19:46.502Z,23.70
2022-08-20T05:21:48.166Z,23.60
2022-08-20T05:23:49.854Z,23.70
2022-08-20T05:25:51.539Z,23.60
2022-08-20T05:27:56.106Z,23.70
2022-08-20T05:30:08.179Z,23.70
2022-08-20T05:32:13.424Z,23.70
2022-08-20T05:34:15.462Z,23.70
2022-08-20T05:36:17.240Z,23.70
2022-08-20T05:38:20.814Z,23.70
2022-08-20T05:40:22.979Z,23.70
2022-08-20T05:42:25.183Z,23.70
2022-08-20T05:44:28.995Z,23.80
2022-08-20T05:46:31.844Z,23.80
2022-08-20T05:48:35.231Z,23.80
2022-08-20T05:50:39.390Z,23.80
2022-08-20T05:52:41.552Z,23.80
2022-08-20T05:54:43.215Z,23.80
2022-08-20T05:56:44.985Z,23.80
2022-08-20T05:58:46.673Z,23.90
2022-08-20T06:00:48.938Z,23.90
2022-08-20T06:03:09.179Z,23.90
2022-08-20T06:05:11.191Z,23.90
2022-08-20T06:07:12.916Z,23.90
2022-08-20T06:09:16.310Z,24.00
2022-08-20T06:11:18.830Z,24.00
2022-08-20T06:13:20.807Z,24.00
2022-08-20T06:15:22.482Z,24.00
2022-08-20T06:17:25.431Z,24.10
2022-08-20T06:19:27.262Z,24.10
2022-08-20T06:21:34.335Z,24.10
2022-08-20T06:23:54.259Z,24.10
2022-08-20T06:25:57.835Z,24.10
2022-08-20T06:27:59.505Z,24.20
2022-08-20T06:30:01.183Z,24.20
2022-08-20T06:32:03.224Z,24.20
2022-08-20T06:34:04.881Z,24.20
2022-08-20T06:36:07.092Z,24.20
2022-08-20T06:38:10.000Z,24.20
2022-08-20T06:40:14.760Z,24.30
2022-08-20T06:42:20.829Z,24.30
2022-08-20T06:44:22.797Z,24.20
2022-08-20T06:46:24.682Z,24.30
2022-08-20T06:48:26.895Z,24.30
2022-08-20T06:50:31.751Z,24.30
2022-08-20T06:52:53.012Z,24.30
2022-08-20T06:54:55.051Z,24.30
2022-08-20T06:56:57.021Z,24.40
2022-08-20T06:58:58.783Z,24.40
2022-08-20T07:01:04.623Z,24.40
2022-08-20T07:03:11.704Z,24.40
2022-08-20T07:05:13.639Z,24.40
2022-08-20T07:07:16.410Z,24.40
2022-08-20T07:09:18.883Z,24.40
2022-08-20T07:11:24.916Z,24.50
2022-08-20T07:13:29.495Z,24.50
2022-08-20T07:15:32.196Z,24.50
2022-08-20T07:17:34.204Z,24.60
2022-08-20T07:19:36.776Z,24.60
2022-08-20T07:21:38.545Z,24.60
2022-08-20T07:23:41.860Z,24.70
2022-08-20T07:25:43.963Z,24.60
2022-08-20T07:27:46.451Z,24.70
2022-08-20T07:30:12.206Z,24.70
2022-08-20T07:32:33.301Z,24.70
2022-08-20T07:34:38.654Z,24.70
2022-08-20T07:36:45.662Z,24.70
2022-08-20T07:38:48.620Z,24.80
2022-08-20T07:40:51.804Z,24.80
2022-08-20T07:42:57.741Z,24.80
2022-08-20T07:44:59.631Z,24.90
2022-08-20T07:47:01.371Z,24.90
2022-08-20T07:49:09.783Z,24.90
2022-08-20T07:51:12.051Z,24.90
2022-08-20T07:53:13.828Z,24.90
2022-08-20T07:55:16.460Z,25.00
2022-08-20T07:57:18.774Z,25.00
2022-08-20T07:59:21.379Z,25.00
2022-08-20T08:01:29.548Z,25.00
2022-08-20T08:03:39.553Z,25.00
2022-08-20T08:05:51.826Z,25.10
2022-08-20T08:07:53.500Z,25.10
2022-08-20T08:09:56.325Z,25.10
2022-08-20T08:11:59.007Z,25.10
2022-08-20T08:14:01.176Z,25.10
2022-08-20T08:16:04.870Z,25.10
2022-08-20T08:18:09.475Z,25.20
2022-08-20T08:20:12.235Z,25.10
2022-08-20T08:22:16.180Z,25.20
2022-08-20T08:24:24.302Z,25.20
2022-08-20T08:26:29.036Z,25.20
2022-08-20T08:28:31.024Z,25.20
2022-08-20T08:30:33.113Z,25.20
2022-08-20T08:32:35.883Z,25.20
2022-08-20T08:34:37.903Z,25.20
2022-08-20T08:36:39.704Z,25.20
2022-08-20T08:38:43.602Z,25.10
2022-08-20T08:40:45.419Z,25.20
2022-08-20T08:42:55.891Z,25.20
2022-08-20T08:44:57.971Z,25.10
2022-08-20T08:47:06.908Z,25.10
2022-08-20T08:49:12.104Z,25.10
2022-08-20T08:51:16.540Z,25.10
2022-08-20T08:53:24.794Z,25.10
2022-08-20T08:55:27.494Z,25.10
2022-08-20T08:57:30.076Z,25.10
2022-08-20T08:59:55.045Z,25.10
2022-08-20T09:01:57.393Z,25.20
2022-08-20T09:03:59.316Z,25.10
2022-08-20T09:06:01.935Z,25.20
2022-08-20T09:08:06.680Z,25.20
2022-08-20T09:10:08.542Z,25.20
2022-08-20T09:12:12.002Z,25.20
2022-08-20T09:14:13.695Z,25.20
2022-08-20T09:16:15.497Z,25.30
2022-08-20T09:18:17.147Z,25.30
2022-08-20T09:20:18.902Z,25.40
2022-08-20T09:22:21.987Z,25.40
2022-08-20T09:24:24.083Z,25.40
2022-08-20T09:26:25.771Z,25.40
2022-08-20T09:28:32.295Z,25.50
2022-08-20T09:30:36.662Z,25.50
2022-08-20T09:32:40.480Z,25.60
2022-08-20T09:34:43.611Z,25.60
2022-08-20T09:36:45.294Z,25.60
2022-08-20T09:38:47.131Z,25.70
2022-08-20T09:40:48.857Z,25.70
2022-08-20T09:43:06.899Z,25.70
2022-08-20T09:45:16.858Z,25.70
2022-08-20T09:47:18.821Z,25.70
2022-08-20T09:49:20.888Z,25.80
2022-08-20T09:51:22.966Z,25.80
2022-08-20T09:53:24.783Z,25.80
2022-08-20T09:55:30.254Z,25.80
2022-08-20T09:57:32.050Z,25.80
2022-08-20T09:59:35.094Z,25.80
2022-08-20T10:01:36.858Z,25.70
2022-08-20T10:03:41.779Z,25.70
2022-08-20T10:05:43.807Z,25.70
2022-08-20T10:07:45.516Z,25.70
2022-08-20T10:09:47.271Z,25.60
2022-08-20T10:11:48.965Z,25.60
2022-08-20T10:13:50.650Z,25.50
2022-08-20T10:15:52.390Z,25.50
2022-08-20T10:17:54.148Z,25.40
2022-08-20T10:19:55.859Z,25.40
2022-08-20T10:21:58.037Z,25.40
2022-08-20T10:24:00.177Z,25.40
2022-08-20T10:26:01.929Z,25.30
2022-08-20T10:28:03.841Z,25.30
2022-08-20T10:30:06.358Z,25.30
2022-08-20T10:32:12.661Z,25.20
2022-08-20T10:34:14.764Z,25.20
2022-08-20T10:36:17.326Z,25.20
2022-08-20T10:38:18.981Z,25.20
2022-08-20T10:40:21.051Z,25.20
2022-08-20T10:42:23.042Z,25.20
2022-08-20T10:44:24.794Z,25.20
2022-08-20T10:46:27.080Z,25.10
2022-08-20T10:48:28.866Z,25.10
2022-08-20T10:50:30.777Z,25.10
2022-08-20T10:52:32.909Z,25.10
2022-08-20T10:54:34.640Z,25.10
2022-08-20T10:56:36.400Z,25.10
2022-08-20T10:58:39.443Z,25.10
2022-08-20T11:00:41.900Z,25.10
2022-08-20T11:02:43.619Z,25.10
2022-08-20T11:04:45.535Z,25.10
2022-08-20T11:06:47.294Z,25.10
2022-08-20T11:08:49.300Z,25.20
2022-08-20T11:10:52.126Z,25.20
2022-08-20T11:12:53.861Z,25.20
2022-08-20T11:14:55.549Z,25.30
2022-08-20T11:16:57.316Z,25.30
2022-08-20T11:18:58.979Z,25.30
2022-08-20T11:21:01.452Z,25.40
2022-08-20T11:23:03.189Z,25.40
2022-08-20T11:25:05.556Z,25.50
2022-08-20T11:27:08.197Z,25.50
2022-08-20T11:29:10.024Z,25.60
2022-08-20T11:31:11.755Z,25.70
2022-08-20T11:33:13.438Z,25.70
2022-08-20T11:35:40.958Z,25.80
2022-08-20T11:37:37.131Z,25.80
2022-08-20T11:39:41.829Z,25.90
2022-08-20T11:41:45.791Z,25.90
2022-08-20T11:44:10.443Z,26.00
2022-08-20T11:46:10.345Z,26.10
2022-08-20T11:48:12.052Z,26.10
2022-08-20T11:50:15.943Z,26.10
2022-08-20T11:52:21.315Z,26.20
2022-08-20T11:54:25.714Z,26.30
2022-08-20T11:56:27.878Z,26.30
2022-08-20T11:58:29.569Z,26.30
2022-08-20T12:00:33.900Z,26.40
2022-08-20T12:02:36.218Z,26.40
2022-08-20T12:04:37.985Z,26.50
2022-08-20T12:06:39.777Z,26.50
2022-08-20T12:08:41.685Z,26.60
2022-08-20T12:10:43.470Z,26.60
2022-08-20T12:12:45.787Z,26.60
2022-08-20T12:14:47.555Z,26.70
2022-08-20T12:16:49.228Z,26.80
2022-08-20T12:18:50.995Z,26.80
2022-08-20T12:20:52.671Z,26.90
2022-08-20T12:22:54.388Z,26.90
2022-08-20T12:24:56.176Z,27.00
2022-08-20T12:27:08.583Z,27.10
2022-08-20T12:29:10.248Z,27.10
2022-08-20T12:31:12.037Z,27.20
2022-08-20T12:33:15.635Z,27.30
2022-08-20T12:35:18.044Z,27.30
2022-08-20T12:37:21.542Z,27.40
2022-08-20T12:39:23.216Z,27.50
2022-08-20T12:41:24.909Z,27.50
2022-08-20T12:43:26.578Z,27.60
2022-08-20T12:45:28.878Z,27.60
2022-08-20T12:47:31.751Z,27.60
2022-08-20T12:49:33.451Z,27.70
2022-08-20T12:51:35.128Z,27.70
2022-08-20T12:53:36.842Z,27.70
2022-08-20T12:55:38.663Z,27.70
2022-08-20T12:57:43.190Z,27.80
2022-08-20T12:59:44.902Z,27.80
2022-08-20T13:01:47.123Z,27.80
2022-08-20T13:03:48.853Z,27.80
2022-08-20T13:05:50.796Z,27.90
2022-08-20T13:07:53.010Z,27.90
2022-08-20T13:09:54.719Z,27.90
2022-08-20T13:11:56.435Z,28.00
2022-08-20T13:13:58.104Z,28.10
2022-08-20T13:15:59.849Z,28.20
2022-08-20T13:18:02.459Z,28.30
2022-08-20T13:20:05.430Z,28.40
2022-08-20T13:22:07.236Z,28.50
2022-08-20T13:24:09.761Z,28.60
2022-08-20T13:26:11.551Z,28.70
2022-08-20T13:28:13.266Z,28.80
2022-08-20T13:30:17.925Z,28.90
2022-08-20T13:32:20.517Z,29.00
2022-08-20T13:34:22.227Z,29.10
2022-08-20T13:36:23.954Z,29.20
2022-08-20T13:38:25.739Z,29.30
2022-08-20T13:40:27.780Z,29.40
2022-08-20T13:42:29.497Z,29.50
2022-08-20T13:44:33.318Z,29.60
2022-08-20T13:46:35.156Z,29.70
2022-08-20T13:48:36.876Z,29.70
2022-08-20T13:50:38.744Z,29.80
2022-08-20T13:52:42.689Z,29.90
2022-08-20T13:54:44.615Z,30.00
2022-08-20T13:56:46.500Z,30.10
2022-08-20T13:58:48.752Z,30.10
2022-08-20T14:00:54.840Z,30.10
2022-08-20T14:03:02.806Z,30.20
2022-08-20T14:05:04.805Z,30.30
2022-08-20T14:07:35.946Z,30.40
2022-08-20T14:09:39.418Z,30.40
2022-08-20T14:11:41.191Z,30.50
2022-08-20T14:13:42.870Z,30.60
2022-08-20T14:15:44.862Z,30.60
2022-08-20T14:17:51.452Z,30.70
2022-08-20T14:20:00.703Z,30.80
2022-08-20T14:22:03.081Z,30.90
2022-08-20T14:24:04.857Z,31.00
2022-08-20T14:26:06.592Z,31.00
2022-08-20T14:28:09.785Z,31.10
2022-08-20T14:30:15.516Z,31.10
2022-08-20T14:32:17.367Z,31.20
2022-08-20T14:34:19.224Z,31.30
2022-08-20T14:36:21.368Z,31.30
2022-08-20T14:38:23.098Z,31.30
2022-08-20T14:40:25.981Z,31.30
2022-08-20T14:42:28.581Z,31.20
2022-08-20T14:44:30.757Z,31.20
2022-08-20T14:46:32.921Z,31.20
2022-08-20T14:48:35.074Z,31.20
2022-08-20T14:50:37.036Z,31.10
2022-08-20T14:52:41.697Z,31.10
2022-08-20T14:54:44.735Z,31.10
2022-08-20T14:56:46.878Z,31.10
2022-08-20T14:58:49.030Z,31.00
2022-08-20T15:00:51.355Z,31.10
2022-08-20T15:02:54.165Z,31.20
2022-08-20T15:08:28.903Z,31.20
2022-08-20T15:16:18.074Z,31.50
2022-08-20T15:18:46.473Z,31.60
2022-08-20T15:21:21.461Z,31.70
2022-08-20T15:23:30.428Z,31.80
2022-08-20T15:25:50.448Z,31.90
2022-08-20T15:28:29.840Z,31.90
2022-08-20T15:30:48.224Z,32.00
2022-08-20T15:32:55.413Z,32.00
2022-08-20T15:35:23.136Z,32.10
2022-08-20T15:37:28.928Z,32.20
2022-08-20T15:39:42.541Z,32.30
2022-08-20T15:41:47.748Z,32.30
2022-08-20T15:44:05.624Z,32.40
2022-08-20T15:46:12.388Z,32.50
2022-08-20T15:48:27.519Z,32.50
2022-08-20T15:50:59.937Z,32.50
2022-08-20T15:53:16.854Z,32.60
2022-08-20T15:55:22.658Z,32.60
2022-08-20T15:57:34.316Z,32.70
2022-08-20T16:00:13.594Z,32.70
2022-08-20T16:02:43.961Z,32.80
2022-08-20T16:04:50.919Z,32.80
2022-08-20T16:07:10.947Z,32.80
2022-08-20T16:09:18.966Z,32.80
2022-08-20T16:11:21.070Z,32.80
2022-08-20T16:13:29.775Z,32.90
2022-08-20T16:15:32.969Z,32.90
2022-08-20T16:17:42.734Z,32.90
2022-08-20T16:20:06.366Z,32.90
2022-08-20T16:22:14.623Z,32.90
2022-08-20T16:24:27.336Z,32.90
2022-08-20T16:26:51.461Z,32.90
2022-08-20T16:30:04.365Z,32.80
2022-08-20T16:34:51.023Z,32.60
2022-08-20T16:37:38.752Z,32.40
2022-08-20T16:39:47.585Z,32.20
2022-08-20T16:41:56.840Z,32.00
2022-08-20T16:46:57.434Z,31.60
2022-08-20T16:49:00.296Z,31.50
2022-08-20T16:51:05.579Z,31.30
2022-08-20T16:53:16.215Z,31.10
2022-08-20T16:55:19.847Z,31.00
2022-08-20T16:57:21.894Z,30.80
2022-08-20T16:59:26.562Z,30.80
2022-08-20T17:01:29.106Z,30.60
2022-08-20T17:03:33.467Z,30.40
2022-08-20T17:05:47.221Z,30.30
2022-08-20T17:07:53.505Z,30.10
2022-08-20T17:10:12.818Z,30.00
2022-08-20T17:12:14.509Z,29.90
2022-08-20T17:14:18.621Z,29.80
2022-08-20T17:16:21.040Z,29.70
2022-08-20T17:18:28.683Z,29.50
2022-08-20T17:20:30.420Z,29.40
2022-08-20T17:22:39.351Z,29.30
2022-08-20T17:24:41.131Z,29.20
2022-08-20T17:26:44.535Z,29.10
2022-08-20T17:28:53.276Z,29.00
2022-08-20T17:30:55.442Z,28.90
2022-08-20T17:33:02.455Z,28.70
2022-08-20T17:35:05.249Z,28.60
2022-08-20T17:37:18.199Z,28.50
2022-08-20T17:39:21.463Z,28.40
2022-08-20T17:41:28.956Z,28.40
2022-08-20T17:43:32.868Z,28.30
2022-08-20T17:45:41.374Z,28.20
2022-08-20T17:47:43.693Z,28.10
2022-08-20T17:50:01.838Z,28.00
2022-08-20T17:52:11.608Z,27.90
2022-08-20T17:54:42.682Z,27.80
2022-08-20T17:56:44.420Z,27.70
2022-08-20T17:58:54.341Z,27.60
2022-08-20T18:00:58.634Z,27.50
2022-08-20T18:03:01.827Z,27.40
2022-08-20T18:05:06.816Z,27.40
2022-08-20T18:07:27.239Z,27.30
2022-08-20T18:09:36.472Z,27.20
2022-08-20T18:11:45.242Z,27.10
2022-08-20T18:13:52.812Z,27.00
2022-08-20T18:15:55.627Z,26.90
2022-08-20T18:18:22.192Z,26.90
2022-08-20T18:20:23.976Z,26.80
2022-08-20T18:22:30.548Z,26.70
2022-08-20T18:24:38.486Z,26.60
2022-08-20T18:26:43.357Z,26.60
2022-08-20T18:28:53.137Z,26.50
2022-08-20T18:30:57.315Z,26.40
2022-08-20T18:33:01.387Z,26.30
2022-08-20T18:35:10.775Z,26.30
2022-08-20T18:37:12.490Z,26.20
2022-08-20T18:39:24.446Z,26.20
2022-08-20T18:41:32.597Z,26.10
2022-08-20T18:43:35.585Z,26.00
2022-08-20T18:45:37.408Z,26.00
2022-08-20T18:47:45.053Z,25.90
2022-08-20T18:49:58.229Z,25.90
2022-08-20T18:52:16.398Z,25.90
2022-08-20T18:54:23.088Z,25.70
2022-08-20T18:56:32.059Z,25.70
2022-08-20T18:58:48.676Z,25.60
2022-08-20T19:00:52.196Z,25.60
2022-08-20T19:03:14.690Z,25.50
2022-08-20T19:05:23.637Z,25.50
2022-08-20T19:07:27.413Z,25.50
2022-08-20T19:10:09.393Z,25.40
2022-08-20T19:12:37.685Z,25.40
2022-08-20T19:14:45.372Z,25.30
2022-08-20T19:16:57.990Z,25.20
2022-08-20T19:18:59.709Z,25.20
2022-08-20T19:21:02.964Z,25.20
2022-08-20T19:23:09.629Z,25.10
2022-08-20T19:25:23.887Z,25.10
2022-08-20T19:27:26.844Z,25.10
2022-08-20T19:29:34.243Z,25.00
2022-08-20T19:31:36.752Z,25.00
2022-08-20T19:33:44.031Z,24.90
2022-08-20T19:35:46.260Z,24.90
2022-08-20T19:37:50.866Z,24.90
2022-08-20T19:39:53.686Z,24.90
2022-08-20T19:41:58.352Z,24.80
2022-08-20T19:44:01.028Z,24.80
2022-08-20T19:46:02.951Z,24.70
2022-08-20T19:48:26.982Z,24.70
2022-08-20T19:50:29.295Z,24.70
2022-08-20T19:52:30.961Z,24.70
2022-08-20T19:54:32.781Z,24.60
2022-08-20T19:56:39.105Z,24.60
2022-08-20T19:58:41.144Z,24.50
2022-08-20T20:00:47.806Z,24.60
2022-08-20T20:02:49.542Z,24.50
2022-08-20T20:04:55.345Z,24.50
2022-08-20T20:06:59.810Z,24.50
2022-08-20T20:09:06.439Z,24.50
2022-08-20T20:11:10.199Z,24.40
2022-08-20T20:13:13.567Z,24.40
2022-08-20T20:15:15.833Z,24.40
2022-08-20T20:17:23.061Z,24.40
2022-08-20T20:19:27.450Z,24.40
2022-08-20T20:21:40.957Z,24.40
2022-08-20T20:23:50.480Z,24.40
2022-08-20T20:26:05.563Z,24.30
2022-08-20T20:28:16.951Z,24.30
2022-08-20T20:30:25.700Z,24.30
2022-08-20T20:32:27.868Z,24.20
2022-08-20T20:34:30.997Z,24.30
2022-08-20T20:36:38.759Z,24.20
2022-08-20T20:38:52.538Z,24.20
2022-08-20T20:40:55.989Z,24.20
2022-08-20T20:43:00.329Z,24.20
2022-08-20T20:45:02.421Z,24.20
2022-08-20T20:47:06.295Z,24.20
2022-08-20T20:49:23.421Z,24.20
2022-08-20T20:51:26.967Z,24.20
2022-08-20T20:53:51.021Z,24.10
2022-08-20T20:55:57.192Z,24.20
2022-08-20T20:57:59.837Z,24.10
2022-08-20T21:00:06.353Z,24.10
2022-08-20T21:02:08.536Z,24.10
2022-08-20T21:04:10.295Z,24.00
2022-08-20T21:06:12.091Z,24.00
2022-08-20T21:08:14.394Z,24.00
2022-08-20T21:10:16.179Z,24.00
2022-08-20T21:12:18.664Z,23.90
2022-08-20T21:14:20.382Z,23.90
2022-08-20T21:16:22.189Z,23.80
2022-08-20T21:18:26.392Z,23.80
2022-08-20T21:20:28.419Z,23.80
2022-08-20T21:22:30.225Z,23.80
2022-08-20T21:24:32.085Z,23.80
2022-08-20T21:26:34.006Z,23.70
2022-08-20T21:28:35.752Z,23.70
2022-08-20T21:30:37.570Z,23.70
2022-08-20T21:32:40.539Z,23.70
2022-08-20T21:34:42.233Z,23.60
2022-08-20T21:36:44.340Z,23.60
2022-08-20T21:38:46.053Z,23.60
2022-08-20T21:40:47.890Z,23.60
2022-08-20T21:42:49.812Z,23.50
2022-08-20T21:44:51.634Z,23.50
2022-08-20T21:46:54.209Z,23.40
2022-08-20T21:48:56.141Z,23.50
2022-08-20T21:50:57.823Z,23.40
2022-08-20T21:53:00.247Z,23.40
2022-08-20T21:55:02.111Z,23.40
2022-08-20T21:57:08.941Z,23.40
2022-08-20T21:59:10.668Z,23.30
2022-08-20T22:01:12.605Z,23.30
2022-08-20T22:03:15.239Z,23.30
2022-08-20T22:05:19.493Z,23.30
2022-08-20T22:07:21.652Z,23.20
2022-08-20T22:09:23.759Z,23.20
2022-08-20T22:11:25.553Z,23.20
2022-08-20T22:13:31.424Z,23.20
2022-08-20T22:15:33.162Z,23.20
2022-08-20T22:17:35.712Z,23.10
2022-08-20T22:19:37.435Z,23.10
2022-08-20T22:21:39.304Z,23.10
2022-08-20T22:23:41.076Z,23.10
2022-08-20T22:25:42.808Z,23.00
2022-08-20T22:27:44.628Z,23.00
2022-08-20T22:29:46.782Z,23.00
2022-08-20T22:31:48.668Z,23.00
2022-08-20T22:33:50.609Z,22.90
2022-08-20T22:35:56.502Z,22.90
2022-08-20T22:37:58.340Z,22.90
2022-08-20T22:40:00.100Z,22.90
2022-08-20T22:42:01.931Z,22.90
2022-08-20T22:44:03.851Z,22.90
2022-08-20T22:46:05.590Z,22.80
2022-08-20T22:48:08.079Z,22.80
2022-08-20T22:50:10.840Z,22.80
2022-08-20T22:52:12.784Z,22.80
2022-08-20T22:54:18.938Z,22.80
2022-08-20T22:56:21.851Z,22.70
2022-08-20T22:58:30.891Z,22.80
2022-08-20T23:00:33.370Z,22.70
2022-08-20T23:02:35.069Z,22.70
2022-08-20T23:04:36.940Z,22.70
2022-08-20T23:06:38.667Z,22.70
2022-08-20T23:08:41.726Z,22.70
2022-08-20T23:10:43.530Z,22.60
2022-08-20T23:12:45.271Z,22.60
2022-08-20T23:14:47.091Z,22.60
2022-08-20T23:16:52.062Z,22.60
2022-08-20T23:18:53.920Z,22.60
2022-08-20T23:20:56.892Z,22.50
2022-08-20T23:22:58.900Z,22.50
2022-08-20T23:25:00.902Z,22.50
2022-08-20T23:27:03.277Z,22.50
2022-08-20T23:29:04.987Z,22.50
2022-08-20T23:31:06.702Z,22.50
2022-08-20T23:33:08.399Z,22.50
2022-08-20T23:35:10.578Z,22.40
2022-08-20T23:37:13.175Z,22.40
2022-08-20T23:39:17.747Z,22.40
2022-08-20T23:41:19.446Z,22.40
2022-08-20T23:43:21.127Z,22.40
2022-08-20T23:45:22.981Z,22.30
2022-08-20T23:47:24.728Z,22.30
2022-08-20T23:49:27.055Z,22.30
2022-08-20T23:51:29.135Z,22.30
2022-08-20T23:53:30.891Z,22.30
2022-08-20T23:55:33.092Z,22.20
2022-08-20T23:57:34.777Z,22.30
2022-08-20T23:59:36.782Z,22.20
